sensor_id;sensor_type;location;lat;lon;timestamp;P1;durP1;ratioP1;P2;durP2;ratioP2
6023;SDS011;3040;42.654;23.296;2022-12-07T00:01:05;64.97;;;33.07;;
6023;SDS011;3040;42.654;23.296;2022-12-07T00:03:33;61.90;;;33.13;;
6023;SDS011;3040;42.654;23.296;2022-12-07T00:06:01;70.03;;;36.30;;
6023;SDS011;3040;42.654;23.296;2022-12-07T00:08:29;64.07;;;31.17;;
6023;SDS011;3040;42.654;23.296;2022-12-07T00:11:00;54.73;;;29.83;;
6023;SDS011;3040;42.654;23.296;2022-12-07T00:13:29;62.90;;;32.40;;
6023;SDS011;3040;42.654;23.296;2022-12-07T00:15:56;108.00;;;50.97;;
6023;SDS011;3040;42.654;23.296;2022-12-07T00:18:28;68.53;;;37.97;;
6023;SDS011;3040;42.654;23.296;2022-12-07T00:20:58;77.30;;;40.63;;
6023;SDS011;3040;42.654;23.296;2022-12-07T00:23:26;73.97;;;40.37;;
6023;SDS011;3040;42.654;23.296;2022-12-07T00:25:53;57.33;;;30.93;;
6023;SDS011;3040;42.654;23.296;2022-12-07T00:28:19;78.80;;;37.70;;
6023;SDS011;3040;42.654;23.296;2022-12-07T00:30:46;90.30;;;42.03;;
6023;SDS011;3040;42.654;23.296;2022-12-07T00:33:13;76.63;;;40.97;;
6023;SDS011;3040;42.654;23.296;2022-12-07T00:35:41;71.63;;;39.13;;
6023;SDS011;3040;42.654;23.296;2022-12-07T00:38:08;64.67;;;38.40;;
6023;SDS011;3040;42.654;23.296;2022-12-07T00:40:35;70.97;;;39.87;;
6023;SDS011;3040;42.654;23.296;2022-12-07T00:43:02;76.67;;;42.07;;
6023;SDS011;3040;42.654;23.296;2022-12-07T00:45:29;70.27;;;40.70;;
6023;SDS011;3040;42.654;23.296;2022-12-07T00:47:56;74.20;;;40.07;;
6023;SDS011;3040;42.654;23.296;2022-12-07T00:50:22;69.33;;;38.43;;
6023;SDS011;3040;42.654;23.296;2022-12-07T00:52:51;64.37;;;33.63;;
6023;SDS011;3040;42.654;23.296;2022-12-07T00:55:17;68.63;;;35.30;;
6023;SDS011;3040;42.654;23.296;2022-12-07T00:57:44;71.53;;;39.50;;
6023;SDS011;3040;42.654;23.296;2022-12-07T01:00:11;70.37;;;37.03;;
6023;SDS011;3040;42.654;23.296;2022-12-07T01:02:39;66.57;;;35.73;;
6023;SDS011;3040;42.654;23.296;2022-12-07T01:05:06;64.23;;;32.70;;
6023;SDS011;3040;42.654;23.296;2022-12-07T01:07:33;54.10;;;32.10;;
6023;SDS011;3040;42.654;23.296;2022-12-07T01:10:02;58.33;;;32.47;;
6023;SDS011;3040;42.654;23.296;2022-12-07T01:12:29;57.53;;;29.83;;
6023;SDS011;3040;42.654;23.296;2022-12-07T01:14:56;57.27;;;31.07;;
6023;SDS011;3040;42.654;23.296;2022-12-07T01:17:22;55.07;;;29.70;;
6023;SDS011;3040;42.654;23.296;2022-12-07T01:19:49;54.43;;;30.43;;
6023;SDS011;3040;42.654;23.296;2022-12-07T01:22:16;58.77;;;29.37;;
6023;SDS011;3040;42.654;23.296;2022-12-07T01:24:43;57.77;;;30.77;;
6023;SDS011;3040;42.654;23.296;2022-12-07T01:27:13;55.87;;;30.13;;
6023;SDS011;3040;42.654;23.296;2022-12-07T01:29:40;58.40;;;30.47;;
6023;SDS011;3040;42.654;23.296;2022-12-07T01:32:07;50.90;;;30.27;;
6023;SDS011;3040;42.654;23.296;2022-12-07T01:34:34;49.40;;;28.87;;
6023;SDS011;3040;42.654;23.296;2022-12-07T01:37:01;54.03;;;28.70;;
6023;SDS011;3040;42.654;23.296;2022-12-07T01:39:28;48.30;;;29.23;;
6023;SDS011;3040;42.654;23.296;2022-12-07T01:41:55;56.00;;;30.63;;
6023;SDS011;3040;42.654;23.296;2022-12-07T01:44:23;54.50;;;30.17;;
6023;SDS011;3040;42.654;23.296;2022-12-07T01:46:52;53.07;;;28.67;;
6023;SDS011;3040;42.654;23.296;2022-12-07T01:49:28;51.77;;;28.40;;
6023;SDS011;3040;42.654;23.296;2022-12-07T01:52:05;45.87;;;28.40;;
6023;SDS011;3040;42.654;23.296;2022-12-07T01:54:39;51.33;;;30.47;;
6023;SDS011;3040;42.654;23.296;2022-12-07T01:57:06;57.73;;;29.47;;
6023;SDS011;3040;42.654;23.296;2022-12-07T01:59:35;51.40;;;29.03;;
6023;SDS011;3040;42.654;23.296;2022-12-07T02:02:04;50.10;;;29.80;;
6023;SDS011;3040;42.654;23.296;2022-12-07T02:04:36;56.70;;;29.37;;
6023;SDS011;3040;42.654;23.296;2022-12-07T02:07:03;51.27;;;30.33;;
6023;SDS011;3040;42.654;23.296;2022-12-07T02:09:31;67.03;;;33.70;;
6023;SDS011;3040;42.654;23.296;2022-12-07T02:11:58;52.00;;;28.90;;
6023;SDS011;3040;42.654;23.296;2022-12-07T02:14:25;58.20;;;31.83;;
6023;SDS011;3040;42.654;23.296;2022-12-07T02:16:57;53.37;;;28.17;;
6023;SDS011;3040;42.654;23.296;2022-12-07T02:22:48;49.80;;;28.57;;
6023;SDS011;3040;42.654;23.296;2022-12-07T02:25:30;51.70;;;29.40;;
6023;SDS011;3040;42.654;23.296;2022-12-07T02:28:07;76.23;;;35.20;;
6023;SDS011;3040;42.654;23.296;2022-12-07T02:30:42;66.00;;;33.80;;
6023;SDS011;3040;42.654;23.296;2022-12-07T02:33:14;74.63;;;37.10;;
6023;SDS011;3040;42.654;23.296;2022-12-07T02:35:46;65.97;;;34.20;;
6023;SDS011;3040;42.654;23.296;2022-12-07T02:38:19;51.03;;;29.50;;
6023;SDS011;3040;42.654;23.296;2022-12-07T02:40:51;45.00;;;26.27;;
6023;SDS011;3040;42.654;23.296;2022-12-07T02:43:23;80.87;;;39.70;;
6023;SDS011;3040;42.654;23.296;2022-12-07T02:45:53;41.57;;;24.23;;
6023;SDS011;3040;42.654;23.296;2022-12-07T02:48:23;41.43;;;24.60;;
6023;SDS011;3040;42.654;23.296;2022-12-07T02:50:53;52.13;;;25.97;;
6023;SDS011;3040;42.654;23.296;2022-12-07T02:53:33;46.80;;;26.53;;
6023;SDS011;3040;42.654;23.296;2022-12-07T02:56:03;46.77;;;26.03;;
6023;SDS011;3040;42.654;23.296;2022-12-07T02:58:38;51.23;;;28.63;;
6023;SDS011;3040;42.654;23.296;2022-12-07T03:01:17;41.63;;;24.63;;
6023;SDS011;3040;42.654;23.296;2022-12-07T03:03:54;35.70;;;21.67;;
6023;SDS011;3040;42.654;23.296;2022-12-07T03:06:30;41.43;;;25.50;;
6023;SDS011;3040;42.654;23.296;2022-12-07T03:09:03;37.53;;;24.03;;
6023;SDS011;3040;42.654;23.296;2022-12-07T03:11:40;43.70;;;25.83;;
6023;SDS011;3040;42.654;23.296;2022-12-07T03:14:13;39.20;;;23.37;;
6023;SDS011;3040;42.654;23.296;2022-12-07T03:16:47;35.57;;;24.33;;
6023;SDS011;3040;42.654;23.296;2022-12-07T03:19:19;101.87;;;47.40;;
6023;SDS011;3040;42.654;23.296;2022-12-07T03:21:51;48.77;;;28.07;;
6023;SDS011;3040;42.654;23.296;2022-12-07T03:24:22;40.27;;;23.23;;
6023;SDS011;3040;42.654;23.296;2022-12-07T03:26:54;44.67;;;23.00;;
6023;SDS011;3040;42.654;23.296;2022-12-07T03:29:38;45.17;;;24.00;;
6023;SDS011;3040;42.654;23.296;2022-12-07T03:32:13;39.30;;;23.53;;
6023;SDS011;3040;42.654;23.296;2022-12-07T03:34:46;44.50;;;24.37;;
6023;SDS011;3040;42.654;23.296;2022-12-07T03:37:18;44.70;;;24.53;;
6023;SDS011;3040;42.654;23.296;2022-12-07T03:39:54;40.60;;;24.87;;
6023;SDS011;3040;42.654;23.296;2022-12-07T03:42:28;42.00;;;23.53;;
6023;SDS011;3040;42.654;23.296;2022-12-07T03:44:56;37.60;;;21.73;;
6023;SDS011;3040;42.654;23.296;2022-12-07T03:47:26;42.93;;;23.43;;
6023;SDS011;3040;42.654;23.296;2022-12-07T03:49:56;62.07;;;29.07;;
6023;SDS011;3040;42.654;23.296;2022-12-07T03:52:30;34.00;;;21.30;;
6023;SDS011;3040;42.654;23.296;2022-12-07T03:55:05;31.40;;;19.53;;
6023;SDS011;3040;42.654;23.296;2022-12-07T03:57:36;37.67;;;23.60;;
6023;SDS011;3040;42.654;23.296;2022-12-07T04:00:05;31.77;;;19.73;;
6023;SDS011;3040;42.654;23.296;2022-12-07T04:02:35;36.30;;;23.43;;
6023;SDS011;3040;42.654;23.296;2022-12-07T04:05:03;29.57;;;20.17;;
6023;SDS011;3040;42.654;23.296;2022-12-07T04:07:30;36.83;;;21.63;;
6023;SDS011;3040;42.654;23.296;2022-12-07T04:09:57;33.97;;;22.33;;
6023;SDS011;3040;42.654;23.296;2022-12-07T04:12:24;37.40;;;22.83;;
6023;SDS011;3040;42.654;23.296;2022-12-07T04:14:51;32.57;;;22.13;;
6023;SDS011;3040;42.654;23.296;2022-12-07T04:17:18;42.57;;;24.27;;
6023;SDS011;3040;42.654;23.296;2022-12-07T04:19:46;36.63;;;21.43;;
6023;SDS011;3040;42.654;23.296;2022-12-07T04:22:13;37.30;;;23.50;;
6023;SDS011;3040;42.654;23.296;2022-12-07T04:24:39;35.87;;;23.27;;
6023;SDS011;3040;42.654;23.296;2022-12-07T04:27:06;36.43;;;22.37;;
6023;SDS011;3040;42.654;23.296;2022-12-07T04:29:33;35.43;;;20.90;;
6023;SDS011;3040;42.654;23.296;2022-12-07T04:32:00;40.50;;;23.30;;
6023;SDS011;3040;42.654;23.296;2022-12-07T04:34:27;34.13;;;21.67;;
6023;SDS011;3040;42.654;23.296;2022-12-07T04:36:55;39.83;;;25.33;;
6023;SDS011;3040;42.654;23.296;2022-12-07T04:39:24;44.63;;;24.77;;
6023;SDS011;3040;42.654;23.296;2022-12-07T04:41:53;43.97;;;25.50;;
6023;SDS011;3040;42.654;23.296;2022-12-07T04:44:20;47.97;;;25.63;;
6023;SDS011;3040;42.654;23.296;2022-12-07T04:46:47;45.70;;;25.53;;
6023;SDS011;3040;42.654;23.296;2022-12-07T04:49:14;45.63;;;26.10;;
6023;SDS011;3040;42.654;23.296;2022-12-07T04:51:41;48.67;;;27.93;;
6023;SDS011;3040;42.654;23.296;2022-12-07T04:54:11;44.43;;;26.20;;
6023;SDS011;3040;42.654;23.296;2022-12-07T04:56:38;45.83;;;26.90;;
6023;SDS011;3040;42.654;23.296;2022-12-07T04:59:05;161.50;;;64.80;;
6023;SDS011;3040;42.654;23.296;2022-12-07T05:01:32;71.13;;;38.03;;
6023;SDS011;3040;42.654;23.296;2022-12-07T05:03:59;40.77;;;25.20;;
6023;SDS011;3040;42.654;23.296;2022-12-07T05:06:27;49.93;;;26.90;;
6023;SDS011;3040;42.654;23.296;2022-12-07T05:08:54;42.83;;;24.93;;
6023;SDS011;3040;42.654;23.296;2022-12-07T05:11:22;44.97;;;26.50;;
6023;SDS011;3040;42.654;23.296;2022-12-07T05:14:06;41.93;;;25.47;;
6023;SDS011;3040;42.654;23.296;2022-12-07T05:16:35;47.33;;;27.57;;
6023;SDS011;3040;42.654;23.296;2022-12-07T05:19:02;43.90;;;26.63;;
6023;SDS011;3040;42.654;23.296;2022-12-07T05:21:29;52.10;;;26.97;;
6023;SDS011;3040;42.654;23.296;2022-12-07T05:23:57;49.33;;;28.50;;
6023;SDS011;3040;42.654;23.296;2022-12-07T05:26:25;50.33;;;28.87;;
6023;SDS011;3040;42.654;23.296;2022-12-07T05:28:52;44.97;;;26.63;;
6023;SDS011;3040;42.654;23.296;2022-12-07T05:31:19;48.53;;;25.83;;
6023;SDS011;3040;42.654;23.296;2022-12-07T05:33:47;40.00;;;26.40;;
6023;SDS011;3040;42.654;23.296;2022-12-07T05:36:14;47.83;;;27.27;;
6023;SDS011;3040;42.654;23.296;2022-12-07T05:38:41;45.63;;;27.80;;
6023;SDS011;3040;42.654;23.296;2022-12-07T05:41:09;54.63;;;30.03;;
6023;SDS011;3040;42.654;23.296;2022-12-07T05:44:00;44.43;;;26.43;;
6023;SDS011;3040;42.654;23.296;2022-12-07T05:46:27;42.63;;;25.07;;
6023;SDS011;3040;42.654;23.296;2022-12-07T05:48:54;37.87;;;25.17;;
6023;SDS011;3040;42.654;23.296;2022-12-07T05:51:21;48.20;;;26.20;;
6023;SDS011;3040;42.654;23.296;2022-12-07T05:53:48;37.80;;;24.23;;
6023;SDS011;3040;42.654;23.296;2022-12-07T05:56:15;37.53;;;23.33;;
6023;SDS011;3040;42.654;23.296;2022-12-07T05:58:42;35.60;;;24.07;;
6023;SDS011;3040;42.654;23.296;2022-12-07T06:01:28;35.17;;;23.43;;
6023;SDS011;3040;42.654;23.296;2022-12-07T06:03:55;52.67;;;29.03;;
6023;SDS011;3040;42.654;23.296;2022-12-07T06:06:22;60.70;;;41.40;;
6023;SDS011;3040;42.654;23.296;2022-12-07T06:08:48;43.03;;;27.90;;
6023;SDS011;3040;42.654;23.296;2022-12-07T06:11:15;33.87;;;23.20;;
6023;SDS011;3040;42.654;23.296;2022-12-07T06:14:00;33.97;;;20.57;;
6023;SDS011;3040;42.654;23.296;2022-12-07T06:16:28;35.57;;;22.47;;
6023;SDS011;3040;42.654;23.296;2022-12-07T06:18:55;43.33;;;24.23;;
6023;SDS011;3040;42.654;23.296;2022-12-07T06:21:22;37.37;;;23.23;;
6023;SDS011;3040;42.654;23.296;2022-12-07T06:23:50;44.60;;;24.40;;
6023;SDS011;3040;42.654;23.296;2022-12-07T06:26:17;52.07;;;24.77;;
6023;SDS011;3040;42.654;23.296;2022-12-07T06:28:44;47.17;;;26.53;;
6023;SDS011;3040;42.654;23.296;2022-12-07T06:31:11;46.90;;;26.00;;
6023;SDS011;3040;42.654;23.296;2022-12-07T06:33:39;43.37;;;26.67;;
6023;SDS011;3040;42.654;23.296;2022-12-07T06:36:06;48.87;;;26.70;;
6023;SDS011;3040;42.654;23.296;2022-12-07T06:38:33;49.33;;;28.83;;
6023;SDS011;3040;42.654;23.296;2022-12-07T06:41:00;41.07;;;25.70;;
6023;SDS011;3040;42.654;23.296;2022-12-07T06:43:27;52.47;;;27.67;;
6023;SDS011;3040;42.654;23.296;2022-12-07T06:45:54;45.93;;;27.60;;
6023;SDS011;3040;42.654;23.296;2022-12-07T06:48:21;39.87;;;24.73;;
6023;SDS011;3040;42.654;23.296;2022-12-07T06:50:49;52.07;;;26.40;;
6023;SDS011;3040;42.654;23.296;2022-12-07T06:53:16;40.43;;;24.60;;
6023;SDS011;3040;42.654;23.296;2022-12-07T06:55:43;39.90;;;24.57;;
6023;SDS011;3040;42.654;23.296;2022-12-07T06:58:10;41.67;;;24.10;;
6023;SDS011;3040;42.654;23.296;2022-12-07T07:00:37;44.43;;;25.43;;
6023;SDS011;3040;42.654;23.296;2022-12-07T07:03:03;45.07;;;25.27;;
6023;SDS011;3040;42.654;23.296;2022-12-07T07:05:30;52.77;;;27.47;;
6023;SDS011;3040;42.654;23.296;2022-12-07T07:07:58;47.80;;;27.37;;
6023;SDS011;3040;42.654;23.296;2022-12-07T07:10:25;50.90;;;26.90;;
6023;SDS011;3040;42.654;23.296;2022-12-07T07:12:52;49.37;;;27.33;;
6023;SDS011;3040;42.654;23.296;2022-12-07T07:15:19;71.70;;;32.27;;
6023;SDS011;3040;42.654;23.296;2022-12-07T07:17:46;64.27;;;31.03;;
6023;SDS011;3040;42.654;23.296;2022-12-07T07:20:13;62.23;;;29.77;;
6023;SDS011;3040;42.654;23.296;2022-12-07T07:22:40;50.77;;;28.77;;
6023;SDS011;3040;42.654;23.296;2022-12-07T07:25:09;55.53;;;29.73;;
6023;SDS011;3040;42.654;23.296;2022-12-07T07:27:36;52.57;;;28.47;;
6023;SDS011;3040;42.654;23.296;2022-12-07T07:30:03;56.90;;;32.10;;
6023;SDS011;3040;42.654;23.296;2022-12-07T07:32:30;74.03;;;32.47;;
6023;SDS011;3040;42.654;23.296;2022-12-07T07:34:57;66.93;;;33.63;;
6023;SDS011;3040;42.654;23.296;2022-12-07T07:37:25;77.77;;;35.63;;
6023;SDS011;3040;42.654;23.296;2022-12-07T07:39:52;75.77;;;36.83;;
6023;SDS011;3040;42.654;23.296;2022-12-07T07:42:21;85.27;;;36.90;;
6023;SDS011;3040;42.654;23.296;2022-12-07T07:44:48;70.67;;;36.10;;
6023;SDS011;3040;42.654;23.296;2022-12-07T07:47:14;84.17;;;37.10;;
6023;SDS011;3040;42.654;23.296;2022-12-07T07:49:41;85.80;;;39.83;;
6023;SDS011;3040;42.654;23.296;2022-12-07T07:52:09;74.70;;;36.73;;
6023;SDS011;3040;42.654;23.296;2022-12-07T07:54:36;71.93;;;36.83;;
6023;SDS011;3040;42.654;23.296;2022-12-07T07:57:03;70.67;;;35.43;;
6023;SDS011;3040;42.654;23.296;2022-12-07T07:59:31;69.03;;;34.20;;
6023;SDS011;3040;42.654;23.296;2022-12-07T08:01:58;77.20;;;35.60;;
6023;SDS011;3040;42.654;23.296;2022-12-07T08:04:25;70.97;;;35.43;;
6023;SDS011;3040;42.654;23.296;2022-12-07T08:06:52;68.17;;;34.90;;
6023;SDS011;3040;42.654;23.296;2022-12-07T08:09:19;56.03;;;32.50;;
6023;SDS011;3040;42.654;23.296;2022-12-07T08:11:46;55.00;;;31.40;;
6023;SDS011;3040;42.654;23.296;2022-12-07T08:14:13;64.07;;;33.67;;
6023;SDS011;3040;42.654;23.296;2022-12-07T08:16:41;64.03;;;30.40;;
6023;SDS011;3040;42.654;23.296;2022-12-07T08:19:08;60.87;;;30.13;;
6023;SDS011;3040;42.654;23.296;2022-12-07T08:21:35;54.47;;;30.80;;
6023;SDS011;3040;42.654;23.296;2022-12-07T08:24:01;51.27;;;29.60;;
6023;SDS011;3040;42.654;23.296;2022-12-07T08:26:28;54.37;;;29.30;;
6023;SDS011;3040;42.654;23.296;2022-12-07T08:28:55;55.37;;;30.20;;
6023;SDS011;3040;42.654;23.296;2022-12-07T08:31:23;55.50;;;28.73;;
6023;SDS011;3040;42.654;23.296;2022-12-07T08:33:52;55.50;;;30.70;;
6023;SDS011;3040;42.654;23.296;2022-12-07T08:36:19;56.67;;;29.83;;
6023;SDS011;3040;42.654;23.296;2022-12-07T08:38:48;48.23;;;28.80;;
6023;SDS011;3040;42.654;23.296;2022-12-07T08:41:15;51.27;;;28.37;;
6023;SDS011;3040;42.654;23.296;2022-12-07T08:43:42;50.50;;;28.60;;
6023;SDS011;3040;42.654;23.296;2022-12-07T08:46:10;51.17;;;28.87;;
6023;SDS011;3040;42.654;23.296;2022-12-07T08:48:42;52.73;;;29.50;;
6023;SDS011;3040;42.654;23.296;2022-12-07T08:51:13;51.13;;;28.53;;
6023;SDS011;3040;42.654;23.296;2022-12-07T08:53:40;53.67;;;28.87;;
6023;SDS011;3040;42.654;23.296;2022-12-07T08:56:09;47.13;;;28.43;;
6023;SDS011;3040;42.654;23.296;2022-12-07T08:58:36;55.03;;;28.70;;
6023;SDS011;3040;42.654;23.296;2022-12-07T09:01:04;52.90;;;26.37;;
6023;SDS011;3040;42.654;23.296;2022-12-07T09:03:31;49.40;;;26.13;;
6023;SDS011;3040;42.654;23.296;2022-12-07T09:05:58;46.53;;;26.20;;
6023;SDS011;3040;42.654;23.296;2022-12-07T09:08:28;47.67;;;26.93;;
6023;SDS011;3040;42.654;23.296;2022-12-07T09:10:58;45.93;;;24.13;;
6023;SDS011;3040;42.654;23.296;2022-12-07T09:13:25;56.87;;;28.37;;
6023;SDS011;3040;42.654;23.296;2022-12-07T09:15:52;65.97;;;29.50;;
6023;SDS011;3040;42.654;23.296;2022-12-07T09:18:19;49.73;;;27.40;;
6023;SDS011;3040;42.654;23.296;2022-12-07T09:20:46;47.53;;;25.80;;
6023;SDS011;3040;42.654;23.296;2022-12-07T09:23:13;51.87;;;23.90;;
6023;SDS011;3040;42.654;23.296;2022-12-07T09:25:41;41.93;;;23.10;;
6023;SDS011;3040;42.654;23.296;2022-12-07T09:28:08;45.97;;;24.40;;
6023;SDS011;3040;42.654;23.296;2022-12-07T09:30:35;38.60;;;24.03;;
6023;SDS011;3040;42.654;23.296;2022-12-07T09:33:02;42.93;;;24.67;;
6023;SDS011;3040;42.654;23.296;2022-12-07T09:35:29;40.73;;;23.93;;
6023;SDS011;3040;42.654;23.296;2022-12-07T09:37:57;43.00;;;23.90;;
6023;SDS011;3040;42.654;23.296;2022-12-07T09:40:24;37.90;;;24.47;;
6023;SDS011;3040;42.654;23.296;2022-12-07T09:42:53;38.77;;;23.70;;
6023;SDS011;3040;42.654;23.296;2022-12-07T09:45:22;39.43;;;23.37;;
6023;SDS011;3040;42.654;23.296;2022-12-07T09:47:50;40.50;;;23.97;;
6023;SDS011;3040;42.654;23.296;2022-12-07T09:50:20;42.77;;;23.77;;
6023;SDS011;3040;42.654;23.296;2022-12-07T09:52:49;45.07;;;23.53;;
6023;SDS011;3040;42.654;23.296;2022-12-07T09:55:19;44.77;;;23.03;;
6023;SDS011;3040;42.654;23.296;2022-12-07T09:57:50;42.23;;;24.27;;
6023;SDS011;3040;42.654;23.296;2022-12-07T10:00:21;44.67;;;25.00;;
6023;SDS011;3040;42.654;23.296;2022-12-07T10:02:52;42.20;;;24.93;;
6023;SDS011;3040;42.654;23.296;2022-12-07T10:05:22;43.23;;;24.40;;
6023;SDS011;3040;42.654;23.296;2022-12-07T10:07:54;42.67;;;23.60;;
6023;SDS011;3040;42.654;23.296;2022-12-07T10:10:23;41.93;;;23.90;;
6023;SDS011;3040;42.654;23.296;2022-12-07T10:12:54;42.73;;;25.57;;
6023;SDS011;3040;42.654;23.296;2022-12-07T10:15:23;50.80;;;24.37;;
6023;SDS011;3040;42.654;23.296;2022-12-07T10:18:14;43.63;;;25.00;;
6023;SDS011;3040;42.654;23.296;2022-12-07T10:20:44;40.17;;;24.67;;
6023;SDS011;3040;42.654;23.296;2022-12-07T10:23:14;43.33;;;24.37;;
6023;SDS011;3040;42.654;23.296;2022-12-07T10:25:42;48.97;;;26.13;;
6023;SDS011;3040;42.654;23.296;2022-12-07T10:28:13;43.00;;;24.50;;
6023;SDS011;3040;42.654;23.296;2022-12-07T10:30:51;36.63;;;23.53;;
6023;SDS011;3040;42.654;23.296;2022-12-07T10:36:19;47.93;;;23.30;;
6023;SDS011;3040;42.654;23.296;2022-12-07T10:38:49;36.97;;;21.70;;
6023;SDS011;3040;42.654;23.296;2022-12-07T10:41:18;32.40;;;20.67;;
6023;SDS011;3040;42.654;23.296;2022-12-07T10:43:48;33.87;;;20.07;;
6023;SDS011;3040;42.654;23.296;2022-12-07T10:52:21;33.87;;;20.50;;
6023;SDS011;3040;42.654;23.296;2022-12-07T10:55:03;28.93;;;18.57;;
6023;SDS011;3040;42.654;23.296;2022-12-07T10:57:42;28.07;;;18.43;;
6023;SDS011;3040;42.654;23.296;2022-12-07T11:00:21;29.67;;;18.97;;
6023;SDS011;3040;42.654;23.296;2022-12-07T11:03:17;37.30;;;19.13;;
6023;SDS011;3040;42.654;23.296;2022-12-07T11:06:03;23.27;;;17.17;;
6023;SDS011;3040;42.654;23.296;2022-12-07T11:08:49;16.53;;;12.90;;
6023;SDS011;3040;42.654;23.296;2022-12-07T11:11:28;28.00;;;16.47;;
6023;SDS011;3040;42.654;23.296;2022-12-07T11:14:03;26.03;;;15.50;;
6023;SDS011;3040;42.654;23.296;2022-12-07T11:16:43;27.07;;;15.07;;
6023;SDS011;3040;42.654;23.296;2022-12-07T11:19:28;26.47;;;16.53;;
6023;SDS011;3040;42.654;23.296;2022-12-07T11:22:09;26.57;;;14.90;;
6023;SDS011;3040;42.654;23.296;2022-12-07T11:24:44;32.10;;;15.83;;
6023;SDS011;3040;42.654;23.296;2022-12-07T11:27:23;23.63;;;14.20;;
6023;SDS011;3040;42.654;23.296;2022-12-07T11:30:02;21.07;;;14.97;;
6023;SDS011;3040;42.654;23.296;2022-12-07T11:32:47;29.73;;;15.67;;
6023;SDS011;3040;42.654;23.296;2022-12-07T11:35:22;16.50;;;11.80;;
6023;SDS011;3040;42.654;23.296;2022-12-07T11:37:57;14.70;;;10.37;;
6023;SDS011;3040;42.654;23.296;2022-12-07T11:40:29;26.40;;;11.87;;
6023;SDS011;3040;42.654;23.296;2022-12-07T11:43:01;10.87;;;9.70;;
6023;SDS011;3040;42.654;23.296;2022-12-07T11:45:33;18.63;;;12.50;;
6023;SDS011;3040;42.654;23.296;2022-12-07T11:48:03;19.37;;;12.30;;
6023;SDS011;3040;42.654;23.296;2022-12-07T11:50:37;14.13;;;12.57;;
6023;SDS011;3040;42.654;23.296;2022-12-07T11:53:10;15.93;;;11.20;;
6023;SDS011;3040;42.654;23.296;2022-12-07T11:55:44;19.20;;;10.87;;
6023;SDS011;3040;42.654;23.296;2022-12-07T11:58:20;12.83;;;11.57;;
6023;SDS011;3040;42.654;23.296;2022-12-07T12:01:05;16.07;;;13.30;;
6023;SDS011;3040;42.654;23.296;2022-12-07T12:03:42;15.60;;;12.47;;
6023;SDS011;3040;42.654;23.296;2022-12-07T12:06:12;14.50;;;11.23;;
6023;SDS011;3040;42.654;23.296;2022-12-07T12:08:39;16.00;;;12.53;;
6023;SDS011;3040;42.654;23.296;2022-12-07T12:11:14;22.10;;;12.93;;
6023;SDS011;3040;42.654;23.296;2022-12-07T12:13:57;24.77;;;15.90;;
6023;SDS011;3040;42.654;23.296;2022-12-07T12:16:56;25.83;;;15.70;;
6023;SDS011;3040;42.654;23.296;2022-12-07T12:19:41;22.53;;;16.43;;
6023;SDS011;3040;42.654;23.296;2022-12-07T12:22:12;24.00;;;15.57;;
6023;SDS011;3040;42.654;23.296;2022-12-07T12:24:43;17.17;;;13.97;;
6023;SDS011;3040;42.654;23.296;2022-12-07T12:27:18;22.30;;;16.13;;
6023;SDS011;3040;42.654;23.296;2022-12-07T12:29:52;22.93;;;15.00;;
6023;SDS011;3040;42.654;23.296;2022-12-07T12:32:20;28.77;;;15.80;;
6023;SDS011;3040;42.654;23.296;2022-12-07T12:35:02;19.70;;;14.67;;
6023;SDS011;3040;42.654;23.296;2022-12-07T12:37:45;28.13;;;15.23;;
6023;SDS011;3040;42.654;23.296;2022-12-07T12:43:26;24.17;;;12.53;;
6023;SDS011;3040;42.654;23.296;2022-12-07T12:46:46;30.33;;;13.27;;
6023;SDS011;3040;42.654;23.296;2022-12-07T12:49:32;16.13;;;10.80;;
6023;SDS011;3040;42.654;23.296;2022-12-07T12:55:13;16.37;;;11.47;;
6023;SDS011;3040;42.654;23.296;2022-12-07T12:57:45;13.80;;;10.90;;
6023;SDS011;3040;42.654;23.296;2022-12-07T13:00:15;12.80;;;10.07;;
6023;SDS011;3040;42.654;23.296;2022-12-07T13:02:47;17.33;;;11.20;;
6023;SDS011;3040;42.654;23.296;2022-12-07T13:05:17;12.93;;;11.47;;
6023;SDS011;3040;42.654;23.296;2022-12-07T13:10:42;26.47;;;13.40;;
6023;SDS011;3040;42.654;23.296;2022-12-07T13:13:30;20.43;;;13.87;;
6023;SDS011;3040;42.654;23.296;2022-12-07T13:28:16;24.17;;;15.00;;
6023;SDS011;3040;42.654;23.296;2022-12-07T13:30:46;34.53;;;15.20;;
6023;SDS011;3040;42.654;23.296;2022-12-07T13:33:23;23.50;;;14.43;;
6023;SDS011;3040;42.654;23.296;2022-12-07T13:35:53;25.53;;;14.80;;
6023;SDS011;3040;42.654;23.296;2022-12-07T13:38:23;28.63;;;16.20;;
6023;SDS011;3040;42.654;23.296;2022-12-07T13:41:02;24.50;;;14.53;;
6023;SDS011;3040;42.654;23.296;2022-12-07T13:43:30;25.80;;;14.63;;
6023;SDS011;3040;42.654;23.296;2022-12-07T13:45:57;30.50;;;13.60;;
6023;SDS011;3040;42.654;23.296;2022-12-07T13:48:28;22.80;;;13.03;;
6023;SDS011;3040;42.654;23.296;2022-12-07T13:50:58;16.93;;;12.37;;
6023;SDS011;3040;42.654;23.296;2022-12-07T13:53:27;20.77;;;13.70;;
6023;SDS011;3040;42.654;23.296;2022-12-07T13:55:55;22.20;;;12.20;;
6023;SDS011;3040;42.654;23.296;2022-12-07T13:58:24;17.97;;;12.83;;
6023;SDS011;3040;42.654;23.296;2022-12-07T14:00:52;24.83;;;14.07;;
6023;SDS011;3040;42.654;23.296;2022-12-07T14:03:30;18.97;;;11.23;;
6023;SDS011;3040;42.654;23.296;2022-12-07T14:06:03;19.03;;;10.70;;
6023;SDS011;3040;42.654;23.296;2022-12-07T14:08:40;27.03;;;11.07;;
6023;SDS011;3040;42.654;23.296;2022-12-07T14:11:08;28.40;;;13.87;;
6023;SDS011;3040;42.654;23.296;2022-12-07T14:13:47;40.70;;;22.87;;
6023;SDS011;3040;42.654;23.296;2022-12-07T14:16:24;20.53;;;12.30;;
6023;SDS011;3040;42.654;23.296;2022-12-07T14:18:54;22.13;;;13.67;;
6023;SDS011;3040;42.654;23.296;2022-12-07T14:21:22;24.13;;;13.77;;
6023;SDS011;3040;42.654;23.296;2022-12-07T14:24:11;23.90;;;13.30;;
6023;SDS011;3040;42.654;23.296;2022-12-07T14:26:41;28.60;;;15.57;;
6023;SDS011;3040;42.654;23.296;2022-12-07T14:29:29;31.00;;;15.57;;
6023;SDS011;3040;42.654;23.296;2022-12-07T14:31:58;21.57;;;15.00;;
6023;SDS011;3040;42.654;23.296;2022-12-07T14:34:52;42.20;;;15.53;;
6023;SDS011;3040;42.654;23.296;2022-12-07T14:37:20;33.30;;;18.13;;
6023;SDS011;3040;42.654;23.296;2022-12-07T14:39:47;40.63;;;19.37;;
6023;SDS011;3040;42.654;23.296;2022-12-07T14:42:14;48.10;;;23.20;;
6023;SDS011;3040;42.654;23.296;2022-12-07T14:44:42;72.23;;;28.43;;
6023;SDS011;3040;42.654;23.296;2022-12-07T14:47:09;68.20;;;20.17;;
6023;SDS011;3040;42.654;23.296;2022-12-07T14:49:36;54.53;;;20.63;;
6023;SDS011;3040;42.654;23.296;2022-12-07T14:52:03;96.53;;;25.73;;
6023;SDS011;3040;42.654;23.296;2022-12-07T14:54:31;64.33;;;30.80;;
6023;SDS011;3040;42.654;23.296;2022-12-07T14:56:59;61.50;;;24.23;;
6023;SDS011;3040;42.654;23.296;2022-12-07T14:59:26;52.70;;;22.63;;
6023;SDS011;3040;42.654;23.296;2022-12-07T15:01:54;44.50;;;19.30;;
6023;SDS011;3040;42.654;23.296;2022-12-07T15:04:21;43.77;;;20.67;;
6023;SDS011;3040;42.654;23.296;2022-12-07T15:06:55;29.90;;;15.80;;
6023;SDS011;3040;42.654;23.296;2022-12-07T15:09:22;112.27;;;47.07;;
6023;SDS011;3040;42.654;23.296;2022-12-07T15:11:49;44.80;;;20.70;;
6023;SDS011;3040;42.654;23.296;2022-12-07T15:14:16;47.37;;;20.67;;
6023;SDS011;3040;42.654;23.296;2022-12-07T15:16:42;38.20;;;20.43;;
6023;SDS011;3040;42.654;23.296;2022-12-07T15:19:12;47.83;;;23.17;;
6023;SDS011;3040;42.654;23.296;2022-12-07T15:21:40;54.37;;;24.07;;
6023;SDS011;3040;42.654;23.296;2022-12-07T15:24:08;43.00;;;20.73;;
6023;SDS011;3040;42.654;23.296;2022-12-07T15:26:36;31.43;;;14.90;;